Lowville, Pennsylvania
Current Conditions -  °F | °C
As of 5:51 PM on Wednesday 22 Oct 2014 (Local Time) from KERI Reporting Station
Overcast Overcast  
Wind Chill: 47°   Ceiling: 2300
Heat Index: 49°   Visibility: 10mi
Dew Point: 41°   Wind: 5mph
Humidity: 74%   Direction: 60°ENE
Pressure: 30.23"   Gusts: NA
Location:  42.0384°N, 79.8318°W
Report Text: KERI 222151Z 06004KT 10SM OVC023 09/05 A3023 RMK AO2 SLP239 T00940050
Loading
Personal Weather Stations






























Interactive Weather Map
Tropical Storm Tracking
New forecast layout! Learn more

10-Day Weather Forecast

Advertisements
Track Severe Weather on mobile